sensor_id;sensor_type;location;lat;lon;timestamp;P1;P2;P0
56688;PMS5003;42565;53.342;-1.534;2024-02-14T00:00:02;9;8;
56688;PMS5003;42565;53.342;-1.534;2024-02-14T00:02:29;9;8;
56688;PMS5003;42565;53.342;-1.534;2024-02-14T00:04:56;10;9;
56688;PMS5003;42565;53.342;-1.534;2024-02-14T00:07:23;9;8;
56688;PMS5003;42565;53.342;-1.534;2024-02-14T00:09:50;7;7;
56688;PMS5003;42565;53.342;-1.534;2024-02-14T00:12:17;8;8;
56688;PMS5003;42565;53.342;-1.534;2024-02-14T00:14:44;8;8;
56688;PMS5003;42565;53.342;-1.534;2024-02-14T00:17:12;6;6;
56688;PMS5003;42565;53.342;-1.534;2024-02-14T00:19:40;7;7;
56688;PMS5003;42565;53.342;-1.534;2024-02-14T00:22:06;9;7;
56688;PMS5003;42565;53.342;-1.534;2024-02-14T00:24:34;9;8;
56688;PMS5003;42565;53.342;-1.534;2024-02-14T00:27:01;12;10;
56688;PMS5003;42565;53.342;-1.534;2024-02-14T00:29:29;9;9;
56688;PMS5003;42565;53.342;-1.534;2024-02-14T00:31:55;9;9;
56688;PMS5003;42565;53.342;-1.534;2024-02-14T00:34:22;12;10;
56688;PMS5003;42565;53.342;-1.534;2024-02-14T00:36:50;10;10;
56688;PMS5003;42565;53.342;-1.534;2024-02-14T00:39:17;9;9;
56688;PMS5003;42565;53.342;-1.534;2024-02-14T00:41:46;11;8;
56688;PMS5003;42565;53.342;-1.534;2024-02-14T00:44:13;9;8;
56688;PMS5003;42565;53.342;-1.534;2024-02-14T00:46:39;11;10;
56688;PMS5003;42565;53.342;-1.534;2024-02-14T00:49:06;10;9;
56688;PMS5003;42565;53.342;-1.534;2024-02-14T00:51:33;10;9;
56688;PMS5003;42565;53.342;-1.534;2024-02-14T00:54:01;10;9;
56688;PMS5003;42565;53.342;-1.534;2024-02-14T00:56:27;10;10;
56688;PMS5003;42565;53.342;-1.534;2024-02-14T00:58:54;10;10;
56688;PMS5003;42565;53.342;-1.534;2024-02-14T01:01:21;9;9;
56688;PMS5003;42565;53.342;-1.534;2024-02-14T01:03:49;10;10;
56688;PMS5003;42565;53.342;-1.534;2024-02-14T01:06:16;10;10;
56688;PMS5003;42565;53.342;-1.534;2024-02-14T01:08:44;11;10;
56688;PMS5003;42565;53.342;-1.534;2024-02-14T01:11:11;11;10;
56688;PMS5003;42565;53.342;-1.534;2024-02-14T01:13:38;8;8;
56688;PMS5003;42565;53.342;-1.534;2024-02-14T01:16:05;12;11;
56688;PMS5003;42565;53.342;-1.534;2024-02-14T01:18:32;10;7;
56688;PMS5003;42565;53.342;-1.534;2024-02-14T01:21:00;9;7;
56688;PMS5003;42565;53.342;-1.534;2024-02-14T01:23:27;9;7;
56688;PMS5003;42565;53.342;-1.534;2024-02-14T01:25:54;8;8;
56688;PMS5003;42565;53.342;-1.534;2024-02-14T01:28:22;13;11;
56688;PMS5003;42565;53.342;-1.534;2024-02-14T01:30:49;8;6;
56688;PMS5003;42565;53.342;-1.534;2024-02-14T01:33:17;7;7;
56688;PMS5003;42565;53.342;-1.534;2024-02-14T01:35:43;6;6;
56688;PMS5003;42565;53.342;-1.534;2024-02-14T01:38:10;10;8;
56688;PMS5003;42565;53.342;-1.534;2024-02-14T01:40:37;4;4;
56688;PMS5003;42565;53.342;-1.534;2024-02-14T01:43:04;8;6;
56688;PMS5003;42565;53.342;-1.534;2024-02-14T01:45:31;6;6;
56688;PMS5003;42565;53.342;-1.534;2024-02-14T01:47:58;6;5;
56688;PMS5003;42565;53.342;-1.534;2024-02-14T01:50:26;6;6;
56688;PMS5003;42565;53.342;-1.534;2024-02-14T01:52:54;5;5;
56688;PMS5003;42565;53.342;-1.534;2024-02-14T01:55:23;7;6;
56688;PMS5003;42565;53.342;-1.534;2024-02-14T01:57:51;7;6;
56688;PMS5003;42565;53.342;-1.534;2024-02-14T02:00:19;6;6;
56688;PMS5003;42565;53.342;-1.534;2024-02-14T02:02:46;5;5;
56688;PMS5003;42565;53.342;-1.534;2024-02-14T02:05:14;4;4;
56688;PMS5003;42565;53.342;-1.534;2024-02-14T02:07:41;7;7;
56688;PMS5003;42565;53.342;-1.534;2024-02-14T02:10:09;4;4;
56688;PMS5003;42565;53.342;-1.534;2024-02-14T02:12:36;5;5;
56688;PMS5003;42565;53.342;-1.534;2024-02-14T02:15:04;3;3;
56688;PMS5003;42565;53.342;-1.534;2024-02-14T02:17:32;4;4;
56688;PMS5003;42565;53.342;-1.534;2024-02-14T02:19:59;2;2;
56688;PMS5003;42565;53.342;-1.534;2024-02-14T02:22:27;5;4;
56688;PMS5003;42565;53.342;-1.534;2024-02-14T02:24:54;3;2;
56688;PMS5003;42565;53.342;-1.534;2024-02-14T02:27:22;2;2;
56688;PMS5003;42565;53.342;-1.534;2024-02-14T02:29:49;3;3;
56688;PMS5003;42565;53.342;-1.534;2024-02-14T02:32:17;2;2;
56688;PMS5003;42565;53.342;-1.534;2024-02-14T02:34:44;4;2;
56688;PMS5003;42565;53.342;-1.534;2024-02-14T02:37:11;3;3;
56688;PMS5003;42565;53.342;-1.534;2024-02-14T02:39:39;1;1;
56688;PMS5003;42565;53.342;-1.534;2024-02-14T02:42:06;3;3;
56688;PMS5003;42565;53.342;-1.534;2024-02-14T02:44:32;3;3;
56688;PMS5003;42565;53.342;-1.534;2024-02-14T02:46:59;0;0;
56688;PMS5003;42565;53.342;-1.534;2024-02-14T02:49:26;3;3;
56688;PMS5003;42565;53.342;-1.534;2024-02-14T02:51:53;1;1;
56688;PMS5003;42565;53.342;-1.534;2024-02-14T02:54:21;1;1;
56688;PMS5003;42565;53.342;-1.534;2024-02-14T02:56:49;1;1;
56688;PMS5003;42565;53.342;-1.534;2024-02-14T02:59:16;1;1;
56688;PMS5003;42565;53.342;-1.534;2024-02-14T03:01:44;0;0;
56688;PMS5003;42565;53.342;-1.534;2024-02-14T03:04:11;3;1;
56688;PMS5003;42565;53.342;-1.534;2024-02-14T03:06:38;1;1;
56688;PMS5003;42565;53.342;-1.534;2024-02-14T03:09:05;2;1;
56688;PMS5003;42565;53.342;-1.534;2024-02-14T03:11:32;1;1;
56688;PMS5003;42565;53.342;-1.534;2024-02-14T03:14:00;1;1;
56688;PMS5003;42565;53.342;-1.534;2024-02-14T03:16:26;3;3;
56688;PMS5003;42565;53.342;-1.534;2024-02-14T03:18:53;2;1;
56688;PMS5003;42565;53.342;-1.534;2024-02-14T03:21:21;1;1;
56688;PMS5003;42565;53.342;-1.534;2024-02-14T03:23:48;0;0;
56688;PMS5003;42565;53.342;-1.534;2024-02-14T03:26:16;3;3;
56688;PMS5003;42565;53.342;-1.534;2024-02-14T03:28:43;2;2;
56688;PMS5003;42565;53.342;-1.534;2024-02-14T03:34:17;2;2;
56688;PMS5003;42565;53.342;-1.534;2024-02-14T03:36:45;4;3;
56688;PMS5003;42565;53.342;-1.534;2024-02-14T03:39:12;4;3;
56688;PMS5003;42565;53.342;-1.534;2024-02-14T03:41:40;2;2;
56688;PMS5003;42565;53.342;-1.534;2024-02-14T03:44:07;1;1;
56688;PMS5003;42565;53.342;-1.534;2024-02-14T03:46:35;2;2;
56688;PMS5003;42565;53.342;-1.534;2024-02-14T03:49:02;2;2;
56688;PMS5003;42565;53.342;-1.534;2024-02-14T03:51:30;2;2;
56688;PMS5003;42565;53.342;-1.534;2024-02-14T03:53:57;2;1;
56688;PMS5003;42565;53.342;-1.534;2024-02-14T03:56:29;1;1;
56688;PMS5003;42565;53.342;-1.534;2024-02-14T03:58:56;1;1;
56688;PMS5003;42565;53.342;-1.534;2024-02-14T04:01:23;1;1;
56688;PMS5003;42565;53.342;-1.534;2024-02-14T04:03:50;1;1;
56688;PMS5003;42565;53.342;-1.534;2024-02-14T04:06:18;1;1;
56688;PMS5003;42565;53.342;-1.534;2024-02-14T04:08:45;0;0;
56688;PMS5003;42565;53.342;-1.534;2024-02-14T04:11:14;1;1;
56688;PMS5003;42565;53.342;-1.534;2024-02-14T04:13:41;1;1;
56688;PMS5003;42565;53.342;-1.534;2024-02-14T04:16:09;0;0;
56688;PMS5003;42565;53.342;-1.534;2024-02-14T04:18:35;1;1;
56688;PMS5003;42565;53.342;-1.534;2024-02-14T04:21:03;2;1;
56688;PMS5003;42565;53.342;-1.534;2024-02-14T04:23:33;1;1;
56688;PMS5003;42565;53.342;-1.534;2024-02-14T04:26:01;0;0;
56688;PMS5003;42565;53.342;-1.534;2024-02-14T04:28:28;0;0;
56688;PMS5003;42565;53.342;-1.534;2024-02-14T04:30:56;0;0;
56688;PMS5003;42565;53.342;-1.534;2024-02-14T04:33:23;0;0;
56688;PMS5003;42565;53.342;-1.534;2024-02-14T04:35:50;0;0;
56688;PMS5003;42565;53.342;-1.534;2024-02-14T04:38:17;0;0;
56688;PMS5003;42565;53.342;-1.534;2024-02-14T04:40:45;0;0;
56688;PMS5003;42565;53.342;-1.534;2024-02-14T04:43:13;1;1;
56688;PMS5003;42565;53.342;-1.534;2024-02-14T04:45:40;1;1;
56688;PMS5003;42565;53.342;-1.534;2024-02-14T04:48:08;0;0;
56688;PMS5003;42565;53.342;-1.534;2024-02-14T04:50:35;0;0;
56688;PMS5003;42565;53.342;-1.534;2024-02-14T04:53:03;0;0;
56688;PMS5003;42565;53.342;-1.534;2024-02-14T04:55:30;1;0;
56688;PMS5003;42565;53.342;-1.534;2024-02-14T04:57:57;0;0;
56688;PMS5003;42565;53.342;-1.534;2024-02-14T05:00:24;0;0;
56688;PMS5003;42565;53.342;-1.534;2024-02-14T05:02:52;1;1;
56688;PMS5003;42565;53.342;-1.534;2024-02-14T05:05:20;0;0;
56688;PMS5003;42565;53.342;-1.534;2024-02-14T05:07:47;0;0;
56688;PMS5003;42565;53.342;-1.534;2024-02-14T05:10:14;0;0;
56688;PMS5003;42565;53.342;-1.534;2024-02-14T05:12:41;0;0;
56688;PMS5003;42565;53.342;-1.534;2024-02-14T05:15:09;0;0;
56688;PMS5003;42565;53.342;-1.534;2024-02-14T05:17:36;0;0;
56688;PMS5003;42565;53.342;-1.534;2024-02-14T05:20:04;0;0;
56688;PMS5003;42565;53.342;-1.534;2024-02-14T05:22:32;0;0;
56688;PMS5003;42565;53.342;-1.534;2024-02-14T05:24:59;0;0;
56688;PMS5003;42565;53.342;-1.534;2024-02-14T05:27:26;0;0;
56688;PMS5003;42565;53.342;-1.534;2024-02-14T05:29:54;0;0;
56688;PMS5003;42565;53.342;-1.534;2024-02-14T05:32:22;0;0;
56688;PMS5003;42565;53.342;-1.534;2024-02-14T05:34:50;0;0;
56688;PMS5003;42565;53.342;-1.534;2024-02-14T05:37:17;0;0;
56688;PMS5003;42565;53.342;-1.534;2024-02-14T05:39:45;0;0;
56688;PMS5003;42565;53.342;-1.534;2024-02-14T05:42:12;0;0;
56688;PMS5003;42565;53.342;-1.534;2024-02-14T05:44:39;1;1;
56688;PMS5003;42565;53.342;-1.534;2024-02-14T05:47:07;0;0;
56688;PMS5003;42565;53.342;-1.534;2024-02-14T05:49:34;2;1;
56688;PMS5003;42565;53.342;-1.534;2024-02-14T05:52:12;0;0;
56688;PMS5003;42565;53.342;-1.534;2024-02-14T05:54:39;0;0;
56688;PMS5003;42565;53.342;-1.534;2024-02-14T05:57:06;0;0;
56688;PMS5003;42565;53.342;-1.534;2024-02-14T05:59:34;1;1;
56688;PMS5003;42565;53.342;-1.534;2024-02-14T06:02:01;0;0;
56688;PMS5003;42565;53.342;-1.534;2024-02-14T06:04:29;1;1;
56688;PMS5003;42565;53.342;-1.534;2024-02-14T06:06:56;1;1;
56688;PMS5003;42565;53.342;-1.534;2024-02-14T06:09:24;1;1;
56688;PMS5003;42565;53.342;-1.534;2024-02-14T06:11:51;1;1;
56688;PMS5003;42565;53.342;-1.534;2024-02-14T06:14:19;1;1;
56688;PMS5003;42565;53.342;-1.534;2024-02-14T06:16:46;0;0;
56688;PMS5003;42565;53.342;-1.534;2024-02-14T06:19:14;0;0;
56688;PMS5003;42565;53.342;-1.534;2024-02-14T06:21:41;0;0;
56688;PMS5003;42565;53.342;-1.534;2024-02-14T06:24:09;0;0;
56688;PMS5003;42565;53.342;-1.534;2024-02-14T06:26:37;0;0;
56688;PMS5003;42565;53.342;-1.534;2024-02-14T06:29:04;1;1;
56688;PMS5003;42565;53.342;-1.534;2024-02-14T06:31:32;0;0;
56688;PMS5003;42565;53.342;-1.534;2024-02-14T06:33:59;0;0;
56688;PMS5003;42565;53.342;-1.534;2024-02-14T06:36:47;1;1;
56688;PMS5003;42565;53.342;-1.534;2024-02-14T06:39:15;0;0;
56688;PMS5003;42565;53.342;-1.534;2024-02-14T06:41:42;1;1;
56688;PMS5003;42565;53.342;-1.534;2024-02-14T06:44:10;1;1;
56688;PMS5003;42565;53.342;-1.534;2024-02-14T06:46:38;0;0;
56688;PMS5003;42565;53.342;-1.534;2024-02-14T06:49:05;1;1;
56688;PMS5003;42565;53.342;-1.534;2024-02-14T06:51:48;2;2;
56688;PMS5003;42565;53.342;-1.534;2024-02-14T06:54:15;2;1;
56688;PMS5003;42565;53.342;-1.534;2024-02-14T06:56:41;0;0;
56688;PMS5003;42565;53.342;-1.534;2024-02-14T06:59:09;1;1;
56688;PMS5003;42565;53.342;-1.534;2024-02-14T07:01:36;1;1;
56688;PMS5003;42565;53.342;-1.534;2024-02-14T07:04:04;2;2;
56688;PMS5003;42565;53.342;-1.534;2024-02-14T07:06:32;2;2;
56688;PMS5003;42565;53.342;-1.534;2024-02-14T07:08:59;1;1;
56688;PMS5003;42565;53.342;-1.534;2024-02-14T07:11:27;2;2;
56688;PMS5003;42565;53.342;-1.534;2024-02-14T07:13:54;2;1;
56688;PMS5003;42565;53.342;-1.534;2024-02-14T07:16:22;1;1;
56688;PMS5003;42565;53.342;-1.534;2024-02-14T07:18:49;1;1;
56688;PMS5003;42565;53.342;-1.534;2024-02-14T07:21:17;2;2;
56688;PMS5003;42565;53.342;-1.534;2024-02-14T07:23:44;2;1;
56688;PMS5003;42565;53.342;-1.534;2024-02-14T07:26:12;3;3;
56688;PMS5003;42565;53.342;-1.534;2024-02-14T07:28:39;3;2;
56688;PMS5003;42565;53.342;-1.534;2024-02-14T07:31:07;4;2;
56688;PMS5003;42565;53.342;-1.534;2024-02-14T07:33:34;1;1;
56688;PMS5003;42565;53.342;-1.534;2024-02-14T07:36:02;3;3;
56688;PMS5003;42565;53.342;-1.534;2024-02-14T07:38:30;2;1;
56688;PMS5003;42565;53.342;-1.534;2024-02-14T07:40:57;1;1;
56688;PMS5003;42565;53.342;-1.534;2024-02-14T07:43:25;2;2;
56688;PMS5003;42565;53.342;-1.534;2024-02-14T07:45:52;2;2;
56688;PMS5003;42565;53.342;-1.534;2024-02-14T07:48:20;2;2;
56688;PMS5003;42565;53.342;-1.534;2024-02-14T07:50:48;2;2;
56688;PMS5003;42565;53.342;-1.534;2024-02-14T07:53:16;4;3;
56688;PMS5003;42565;53.342;-1.534;2024-02-14T07:55:43;2;2;
56688;PMS5003;42565;53.342;-1.534;2024-02-14T07:58:10;3;3;
56688;PMS5003;42565;53.342;-1.534;2024-02-14T08:01:11;2;2;
56688;PMS5003;42565;53.342;-1.534;2024-02-14T08:03:38;1;1;
56688;PMS5003;42565;53.342;-1.534;2024-02-14T08:06:07;1;1;
56688;PMS5003;42565;53.342;-1.534;2024-02-14T08:08:34;4;4;
56688;PMS5003;42565;53.342;-1.534;2024-02-14T08:11:02;4;2;
56688;PMS5003;42565;53.342;-1.534;2024-02-14T08:13:30;2;2;
56688;PMS5003;42565;53.342;-1.534;2024-02-14T08:15:56;2;2;
56688;PMS5003;42565;53.342;-1.534;2024-02-14T08:18:24;3;3;
56688;PMS5003;42565;53.342;-1.534;2024-02-14T08:20:51;2;2;
56688;PMS5003;42565;53.342;-1.534;2024-02-14T08:23:19;3;2;
56688;PMS5003;42565;53.342;-1.534;2024-02-14T08:25:46;2;2;
56688;PMS5003;42565;53.342;-1.534;2024-02-14T08:28:14;3;3;
56688;PMS5003;42565;53.342;-1.534;2024-02-14T08:30:41;2;1;
56688;PMS5003;42565;53.342;-1.534;2024-02-14T08:33:08;5;2;
56688;PMS5003;42565;53.342;-1.534;2024-02-14T08:35:36;3;3;
56688;PMS5003;42565;53.342;-1.534;2024-02-14T08:38:03;3;2;
56688;PMS5003;42565;53.342;-1.534;2024-02-14T08:40:32;1;1;
56688;PMS5003;42565;53.342;-1.534;2024-02-14T08:42:59;2;2;
56688;PMS5003;42565;53.342;-1.534;2024-02-14T08:45:27;2;1;
56688;PMS5003;42565;53.342;-1.534;2024-02-14T08:48:05;4;3;
56688;PMS5003;42565;53.342;-1.534;2024-02-14T08:50:33;3;2;
56688;PMS5003;42565;53.342;-1.534;2024-02-14T08:53:00;5;5;
56688;PMS5003;42565;53.342;-1.534;2024-02-14T08:55:27;5;4;
56688;PMS5003;42565;53.342;-1.534;2024-02-14T08:57:55;3;3;
56688;PMS5003;42565;53.342;-1.534;2024-02-14T09:00:23;3;3;
56688;PMS5003;42565;53.342;-1.534;2024-02-14T09:02:50;3;3;
56688;PMS5003;42565;53.342;-1.534;2024-02-14T09:05:23;3;3;
56688;PMS5003;42565;53.342;-1.534;2024-02-14T09:07:50;5;3;
56688;PMS5003;42565;53.342;-1.534;2024-02-14T09:10:21;4;4;
56688;PMS5003;42565;53.342;-1.534;2024-02-14T09:12:53;3;3;
56688;PMS5003;42565;53.342;-1.534;2024-02-14T09:15:22;3;3;
56688;PMS5003;42565;53.342;-1.534;2024-02-14T09:17:50;6;4;
56688;PMS5003;42565;53.342;-1.534;2024-02-14T09:20:22;4;4;
56688;PMS5003;42565;53.342;-1.534;2024-02-14T09:22:56;3;3;
56688;PMS5003;42565;53.342;-1.534;2024-02-14T09:25:23;4;4;
56688;PMS5003;42565;53.342;-1.534;2024-02-14T09:27:50;4;3;
56688;PMS5003;42565;53.342;-1.534;2024-02-14T09:30:18;5;3;
56688;PMS5003;42565;53.342;-1.534;2024-02-14T09:32:45;4;4;
56688;PMS5003;42565;53.342;-1.534;2024-02-14T09:35:13;5;5;
56688;PMS5003;42565;53.342;-1.534;2024-02-14T09:37:40;4;4;
56688;PMS5003;42565;53.342;-1.534;2024-02-14T09:40:09;3;3;
56688;PMS5003;42565;53.342;-1.534;2024-02-14T09:42:38;4;3;
56688;PMS5003;42565;53.342;-1.534;2024-02-14T09:45:09;4;4;
56688;PMS5003;42565;53.342;-1.534;2024-02-14T09:47:37;2;2;
56688;PMS5003;42565;53.342;-1.534;2024-02-14T09:50:17;3;3;
56688;PMS5003;42565;53.342;-1.534;2024-02-14T09:52:46;4;4;
56688;PMS5003;42565;53.342;-1.534;2024-02-14T09:55:14;4;4;
56688;PMS5003;42565;53.342;-1.534;2024-02-14T09:57:42;3;3;
56688;PMS5003;42565;53.342;-1.534;2024-02-14T10:00:11;3;3;
56688;PMS5003;42565;53.342;-1.534;2024-02-14T10:02:49;3;3;
56688;PMS5003;42565;53.342;-1.534;2024-02-14T10:05:16;2;2;
56688;PMS5003;42565;53.342;-1.534;2024-02-14T10:07:44;1;1;
56688;PMS5003;42565;53.342;-1.534;2024-02-14T10:10:11;4;4;
56688;PMS5003;42565;53.342;-1.534;2024-02-14T10:12:39;3;3;
56688;PMS5003;42565;53.342;-1.534;2024-02-14T10:15:15;2;1;
56688;PMS5003;42565;53.342;-1.534;2024-02-14T10:17:43;1;0;
56688;PMS5003;42565;53.342;-1.534;2024-02-14T10:20:10;2;1;
56688;PMS5003;42565;53.342;-1.534;2024-02-14T10:22:43;2;1;
56688;PMS5003;42565;53.342;-1.534;2024-02-14T10:25:28;2;2;
56688;PMS5003;42565;53.342;-1.534;2024-02-14T10:27:56;1;1;
56688;PMS5003;42565;53.342;-1.534;2024-02-14T10:30:23;1;1;
56688;PMS5003;42565;53.342;-1.534;2024-02-14T10:32:51;1;1;
56688;PMS5003;42565;53.342;-1.534;2024-02-14T10:35:18;1;1;
56688;PMS5003;42565;53.342;-1.534;2024-02-14T10:37:47;1;0;
56688;PMS5003;42565;53.342;-1.534;2024-02-14T10:40:15;1;1;
56688;PMS5003;42565;53.342;-1.534;2024-02-14T10:42:43;3;2;
56688;PMS5003;42565;53.342;-1.534;2024-02-14T10:45:10;2;2;
56688;PMS5003;42565;53.342;-1.534;2024-02-14T10:47:40;1;1;
56688;PMS5003;42565;53.342;-1.534;2024-02-14T10:50:12;1;1;
56688;PMS5003;42565;53.342;-1.534;2024-02-14T10:52:40;1;1;
56688;PMS5003;42565;53.342;-1.534;2024-02-14T10:55:08;2;2;
56688;PMS5003;42565;53.342;-1.534;2024-02-14T10:57:37;0;0;
56688;PMS5003;42565;53.342;-1.534;2024-02-14T11:00:06;1;0;
56688;PMS5003;42565;53.342;-1.534;2024-02-14T11:02:35;0;0;
56688;PMS5003;42565;53.342;-1.534;2024-02-14T11:05:02;1;1;
56688;PMS5003;42565;53.342;-1.534;2024-02-14T11:07:31;0;0;
56688;PMS5003;42565;53.342;-1.534;2024-02-14T11:10:01;0;0;
56688;PMS5003;42565;53.342;-1.534;2024-02-14T11:12:36;0;0;
56688;PMS5003;42565;53.342;-1.534;2024-02-14T11:15:09;0;0;
56688;PMS5003;42565;53.342;-1.534;2024-02-14T11:17:36;1;1;
56688;PMS5003;42565;53.342;-1.534;2024-02-14T11:20:15;1;1;
56688;PMS5003;42565;53.342;-1.534;2024-02-14T11:23:01;2;2;
56688;PMS5003;42565;53.342;-1.534;2024-02-14T11:25:35;0;0;
56688;PMS5003;42565;53.342;-1.534;2024-02-14T11:28:16;1;1;
56688;PMS5003;42565;53.342;-1.534;2024-02-14T11:30:45;1;1;
56688;PMS5003;42565;53.342;-1.534;2024-02-14T11:33:15;2;2;
56688;PMS5003;42565;53.342;-1.534;2024-02-14T11:35:48;1;1;
56688;PMS5003;42565;53.342;-1.534;2024-02-14T11:38:21;1;1;
56688;PMS5003;42565;53.342;-1.534;2024-02-14T11:40:50;1;1;
56688;PMS5003;42565;53.342;-1.534;2024-02-14T11:43:18;2;1;
56688;PMS5003;42565;53.342;-1.534;2024-02-14T11:45:46;1;1;
56688;PMS5003;42565;53.342;-1.534;2024-02-14T11:48:14;2;2;
56688;PMS5003;42565;53.342;-1.534;2024-02-14T11:50:42;2;2;
56688;PMS5003;42565;53.342;-1.534;2024-02-14T11:53:10;3;2;
56688;PMS5003;42565;53.342;-1.534;2024-02-14T11:55:38;0;0;
56688;PMS5003;42565;53.342;-1.534;2024-02-14T11:58:06;2;2;
56688;PMS5003;42565;53.342;-1.534;2024-02-14T12:00:33;1;1;
56688;PMS5003;42565;53.342;-1.534;2024-02-14T12:03:01;2;2;
56688;PMS5003;42565;53.342;-1.534;2024-02-14T12:05:28;1;1;
56688;PMS5003;42565;53.342;-1.534;2024-02-14T12:07:56;1;1;
56688;PMS5003;42565;53.342;-1.534;2024-02-14T12:10:24;2;2;
56688;PMS5003;42565;53.342;-1.534;2024-02-14T12:12:51;2;1;
56688;PMS5003;42565;53.342;-1.534;2024-02-14T12:15:19;1;1;
56688;PMS5003;42565;53.342;-1.534;2024-02-14T12:17:47;2;1;
56688;PMS5003;42565;53.342;-1.534;2024-02-14T12:20:14;1;1;
56688;PMS5003;42565;53.342;-1.534;2024-02-14T12:22:42;2;2;
56688;PMS5003;42565;53.342;-1.534;2024-02-14T12:25:09;1;1;
56688;PMS5003;42565;53.342;-1.534;2024-02-14T12:27:37;2;2;
56688;PMS5003;42565;53.342;-1.534;2024-02-14T12:30:05;1;1;
56688;PMS5003;42565;53.342;-1.534;2024-02-14T12:32:33;2;2;
56688;PMS5003;42565;53.342;-1.534;2024-02-14T12:35:01;3;2;
56688;PMS5003;42565;53.342;-1.534;2024-02-14T12:37:28;2;2;
56688;PMS5003;42565;53.342;-1.534;2024-02-14T12:39:56;2;2;
56688;PMS5003;42565;53.342;-1.534;2024-02-14T12:42:23;2;2;
56688;PMS5003;42565;53.342;-1.534;2024-02-14T12:44:51;2;2;
56688;PMS5003;42565;53.342;-1.534;2024-02-14T12:47:20;2;2;
56688;PMS5003;42565;53.342;-1.534;2024-02-14T12:49:48;2;2;
56688;PMS5003;42565;53.342;-1.534;2024-02-14T12:52:16;3;2;
56688;PMS5003;42565;53.342;-1.534;2024-02-14T12:54:44;1;1;
56688;PMS5003;42565;53.342;-1.534;2024-02-14T12:57:11;2;2;
56688;PMS5003;42565;53.342;-1.534;2024-02-14T12:59:39;2;2;
56688;PMS5003;42565;53.342;-1.534;2024-02-14T13:02:06;2;2;
56688;PMS5003;42565;53.342;-1.534;2024-02-14T13:04:34;0;0;
56688;PMS5003;42565;53.342;-1.534;2024-02-14T13:07:01;2;2;
56688;PMS5003;42565;53.342;-1.534;2024-02-14T13:09:29;1;1;
56688;PMS5003;42565;53.342;-1.534;2024-02-14T13:12:06;2;2;
56688;PMS5003;42565;53.342;-1.534;2024-02-14T13:14:33;2;1;
56688;PMS5003;42565;53.342;-1.534;2024-02-14T13:17:11;1;1;
56688;PMS5003;42565;53.342;-1.534;2024-02-14T13:19:38;3;2;
56688;PMS5003;42565;53.342;-1.534;2024-02-14T13:22:10;2;2;
56688;PMS5003;42565;53.342;-1.534;2024-02-14T13:24:37;1;1;
56688;PMS5003;42565;53.342;-1.534;2024-02-14T13:27:05;1;1;
56688;PMS5003;42565;53.342;-1.534;2024-02-14T13:29:32;1;1;
56688;PMS5003;42565;53.342;-1.534;2024-02-14T13:32:00;1;1;
56688;PMS5003;42565;53.342;-1.534;2024-02-14T13:34:29;2;2;
56688;PMS5003;42565;53.342;-1.534;2024-02-14T13:36:56;2;2;
56688;PMS5003;42565;53.342;-1.534;2024-02-14T13:39:24;2;2;
56688;PMS5003;42565;53.342;-1.534;2024-02-14T13:41:51;2;2;
56688;PMS5003;42565;53.342;-1.534;2024-02-14T13:44:19;0;0;
56688;PMS5003;42565;53.342;-1.534;2024-02-14T13:46:46;4;2;
56688;PMS5003;42565;53.342;-1.534;2024-02-14T13:49:14;1;1;
56688;PMS5003;42565;53.342;-1.534;2024-02-14T13:51:42;1;1;
56688;PMS5003;42565;53.342;-1.534;2024-02-14T13:54:10;2;2;
56688;PMS5003;42565;53.342;-1.534;2024-02-14T13:56:38;2;2;
56688;PMS5003;42565;53.342;-1.534;2024-02-14T13:59:06;1;1;
56688;PMS5003;42565;53.342;-1.534;2024-02-14T14:01:34;2;2;
56688;PMS5003;42565;53.342;-1.534;2024-02-14T14:04:02;2;2;
56688;PMS5003;42565;53.342;-1.534;2024-02-14T14:06:32;2;2;
56688;PMS5003;42565;53.342;-1.534;2024-02-14T14:09:00;2;2;
56688;PMS5003;42565;53.342;-1.534;2024-02-14T14:11:28;1;1;
56688;PMS5003;42565;53.342;-1.534;2024-02-14T14:13:55;2;2;
56688;PMS5003;42565;53.342;-1.534;2024-02-14T14:16:23;3;3;
56688;PMS5003;42565;53.342;-1.534;2024-02-14T14:18:50;3;2;
56688;PMS5003;42565;53.342;-1.534;2024-02-14T14:21:18;2;2;
56688;PMS5003;42565;53.342;-1.534;2024-02-14T14:23:45;3;2;
56688;PMS5003;42565;53.342;-1.534;2024-02-14T14:26:18;3;2;
56688;PMS5003;42565;53.342;-1.534;2024-02-14T14:28:45;1;1;
56688;PMS5003;42565;53.342;-1.534;2024-02-14T14:31:13;3;2;
56688;PMS5003;42565;53.342;-1.534;2024-02-14T14:33:40;3;2;
56688;PMS5003;42565;53.342;-1.534;2024-02-14T14:36:08;2;2;
56688;PMS5003;42565;53.342;-1.534;2024-02-14T14:38:35;3;3;
56688;PMS5003;42565;53.342;-1.534;2024-02-14T14:41:03;2;2;
56688;PMS5003;42565;53.342;-1.534;2024-02-14T14:43:30;2;2;
56688;PMS5003;42565;53.342;-1.534;2024-02-14T14:45:58;3;3;
56688;PMS5003;42565;53.342;-1.534;2024-02-14T14:48:26;3;2;
56688;PMS5003;42565;53.342;-1.534;2024-02-14T14:50:53;4;3;
56688;PMS5003;42565;53.342;-1.534;2024-02-14T14:53:20;3;2;
56688;PMS5003;42565;53.342;-1.534;2024-02-14T14:55:50;2;2;
56688;PMS5003;42565;53.342;-1.534;2024-02-14T14:58:28;3;1;
56688;PMS5003;42565;53.342;-1.534;2024-02-14T15:00:55;0;0;
56688;PMS5003;42565;53.342;-1.534;2024-02-14T15:03:23;2;1;
56688;PMS5003;42565;53.342;-1.534;2024-02-14T15:05:50;1;1;
56688;PMS5003;42565;53.342;-1.534;2024-02-14T15:08:18;2;2;
56688;PMS5003;42565;53.342;-1.534;2024-02-14T15:10:45;3;2;
56688;PMS5003;42565;53.342;-1.534;2024-02-14T15:13:13;4;2;
56688;PMS5003;42565;53.342;-1.534;2024-02-14T15:15:40;4;2;
56688;PMS5003;42565;53.342;-1.534;2024-02-14T15:18:08;1;1;
56688;PMS5003;42565;53.342;-1.534;2024-02-14T15:20:35;5;3;
56688;PMS5003;42565;53.342;-1.534;2024-02-14T15:23:09;6;3;
56688;PMS5003;42565;53.342;-1.534;2024-02-14T15:25:36;1;1;
56688;PMS5003;42565;53.342;-1.534;2024-02-14T15:28:07;5;2;
56688;PMS5003;42565;53.342;-1.534;2024-02-14T15:30:35;1;1;
56688;PMS5003;42565;53.342;-1.534;2024-02-14T15:33:06;1;0;
56688;PMS5003;42565;53.342;-1.534;2024-02-14T15:35:33;1;1;
56688;PMS5003;42565;53.342;-1.534;2024-02-14T15:38:01;3;2;
56688;PMS5003;42565;53.342;-1.534;2024-02-14T15:40:33;2;2;
56688;PMS5003;42565;53.342;-1.534;2024-02-14T15:43:00;3;2;
56688;PMS5003;42565;53.342;-1.534;2024-02-14T15:45:27;2;2;
56688;PMS5003;42565;53.342;-1.534;2024-02-14T15:47:54;4;3;
56688;PMS5003;42565;53.342;-1.534;2024-02-14T15:50:22;2;2;
56688;PMS5003;42565;53.342;-1.534;2024-02-14T15:52:49;2;2;
56688;PMS5003;42565;53.342;-1.534;2024-02-14T15:55:17;4;3;
56688;PMS5003;42565;53.342;-1.534;2024-02-14T15:57:44;2;2;
56688;PMS5003;42565;53.342;-1.534;2024-02-14T16:00:12;3;2;
56688;PMS5003;42565;53.342;-1.534;2024-02-14T16:02:39;3;2;
56688;PMS5003;42565;53.342;-1.534;2024-02-14T16:05:08;4;2;
56688;PMS5003;42565;53.342;-1.534;2024-02-14T16:07:35;3;2;
56688;PMS5003;42565;53.342;-1.534;2024-02-14T16:10:03;3;3;
56688;PMS5003;42565;53.342;-1.534;2024-02-14T16:12:31;2;1;
56688;PMS5003;42565;53.342;-1.534;2024-02-14T16:14:59;3;3;
56688;PMS5003;42565;53.342;-1.534;2024-02-14T16:17:26;1;1;
56688;PMS5003;42565;53.342;-1.534;2024-02-14T16:19:54;1;0;
56688;PMS5003;42565;53.342;-1.534;2024-02-14T16:22:21;3;2;
56688;PMS5003;42565;53.342;-1.534;2024-02-14T16:24:49;3;2;
56688;PMS5003;42565;53.342;-1.534;2024-02-14T16:27:16;1;1;
56688;PMS5003;42565;53.342;-1.534;2024-02-14T16:29:44;4;3;
56688;PMS5003;42565;53.342;-1.534;2024-02-14T16:32:11;5;3;
56688;PMS5003;42565;53.342;-1.534;2024-02-14T16:34:39;3;2;
56688;PMS5003;42565;53.342;-1.534;2024-02-14T16:37:15;3;2;
56688;PMS5003;42565;53.342;-1.534;2024-02-14T16:39:42;4;3;
56688;PMS5003;42565;53.342;-1.534;2024-02-14T16:42:10;2;2;